• Join FlightAware (Why Join?)
  • Login
  • US Flag 
04:59AM EST


 

Airport Tracker/Info


-or-


 

Live Flight TrackerFlight Track Log ✈ EJA583 ✈ 13-Sep-2013 ✈ KDAL - KMAF

Flight Track Log - Related Links

Times and Time Zones

All times are in EDT time to prevent confusion due to time zone crossing. See the EJA583 flight status page for this flight to view local times or setup timezone preferences in your user account.

Time Position Orientation Groundspeed Altitude Reporting Facility
EDT Latitude Longitude Course Direction KTS MPH feet Rate Location/Type
12:12PM 32.8667 -96.8667 320° Northwest 179 206 1,400  Level Dallas / Fort Worth TRACON
12:13PM 32.9167 -96.9167 320° Northwest 229 264 5,200 2,700 Climbing Dallas / Fort Worth TRACON
12:14PM 32.9667 -96.9833 312° West 278 320 7,500 3,120 Climbing Dallas / Fort Worth TRACON
12:15PM 33.0000 -97.0500 301° West 231 266 11,500 3,300 Climbing Dallas / Fort Worth TRACON
12:16PM 33.0333 -97.1167 301° West 266 306 14,100 1,680 Climbing Dallas / Fort Worth TRACON
12:19PM 32.9314 -97.3219 239° Southwest 322 371 17,100 1,140 Climbing Fort Worth Center
12:20PM 32.8856 -97.4133 239° Southwest 363 418 18,000 1,500 Climbing Fort Worth Center
12:21PM 32.8269 -97.5272 239° Southwest 369 425 20,100 1,920 Climbing Fort Worth Center
12:22PM 32.7789 -97.6186 238° Southwest 369 425 21,900 1,620 Climbing Fort Worth Center
12:23PM 32.7306 -97.7319 243° Southwest 359 413 23,400 1,200 Climbing Fort Worth Center
12:24PM 32.7261 -97.8556 268° West 354 407 24,300 840 Climbing Fort Worth Center
12:25PM 32.7278 -97.9814 271° West 372 428 25,100 720 Climbing Fort Worth Center
12:26PM 32.7125 -98.1072 262° West 385 443 25,800 420 Climbing Fort Worth Center
12:27PM 32.6969 -98.2406 262° West 395 455 26,000 60 Climbing Fort Worth Center
12:28PM 32.6794 -98.3736 261° West 406 467 26,000  Level Fort Worth Center
12:29PM 32.6594 -98.5092 260° West 412 474 26,000  Level Fort Worth Center
12:30PM 32.6458 -98.6372 263° West 412 474 26,000  Level Fort Worth Center
12:31PM 32.6281 -98.7456 259° West 402 463 26,000  Level Fort Worth Center
12:32PM 32.6142 -98.8686 262° West 386 444 26,000  Level Fort Worth Center
12:33PM 32.5981 -98.9917 261° West 386 444 26,000  Level Fort Worth Center
12:34PM 32.5817 -99.1122 261° West 386 444 26,000  Level Fort Worth Center
12:35PM 32.5675 -99.2328 262° West 381 438 26,000  Level Fort Worth Center
12:36PM 32.5511 -99.3531 261° West 381 438 26,000  Level Fort Worth Center
12:37PM 32.5325 -99.4733 260° West 376 433 26,000  Level Fort Worth Center
12:38PM 32.5158 -99.5961 261° West 376 433 26,000  Level Fort Worth Center
12:39PM 32.4992 -99.7164 261° West 371 427 26,000  Level Fort Worth Center
12:40PM 32.4822 -99.8367 261° West 371 427 26,000  Level Fort Worth Center
12:41PM 32.4589 -99.9567 257° West 371 427 26,000  Level Fort Worth Center
12:42PM 32.4336 -100.0742 256° West 371 427 26,000  Level Fort Worth Center
12:43PM 32.4081 -100.1914 256° West 371 427 26,000  Level Fort Worth Center
12:44PM 32.3803 -100.3111 255° West 376 433 26,000 -420 Level Fort Worth Center
12:45PM 32.3522 -100.4381 255° West 371 427 25,200 -1,200 Descending Fort Worth Center
12:46PM 32.3219 -100.5675 255° West 389 448 23,600 -1,140 Descending Fort Worth Center
12:47PM 32.2933 -100.6992 256° West 404 465 23,000 -660 Descending Fort Worth Center
12:48PM 32.2628 -100.8283 254° West 410 472 22,300 -1,140 Descending Fort Worth Center
12:49PM 32.2197 -100.9542 248° West 410 472 20,800 -1,500 Descending Fort Worth Center
12:50PM 32.1767 -101.0753 247° West 410 472 19,300 -1,500 Descending Fort Worth Center
12:51PM 32.1356 -101.1889 247° West 397 457 17,800 -1,500 Descending Fort Worth Center
12:52PM 32.1089 -101.3106 256° West 391 450 16,300 -1,500 Descending Fort Worth Center
12:53PM 32.0886 -101.4297 259° West 379 436 14,800 -1,500 Descending Fort Worth Center
12:54PM 32.0886 -101.5547 270° West 379 436 13,300 -1,500 Descending Fort Worth Center
12:55PM 32.0908 -101.6800 271° West 379 436 11,800 -1,620 Descending Fort Worth Center
12:56PM 32.0972 -101.7956 274° West 379 436 10,100 -1,680 Descending Fort Worth Center
12:57PM 32.1017 -101.9011 273° West 353 406 8,500 -1,800 Descending Fort Worth Center
12:58PM 32.1089 -101.9947 275° West 317 365 6,600 -1,800 Descending Fort Worth Center
12:59PM 32.1139 -102.0856 274° West 293 337 4,900 -900 Descending Fort Worth Center
01:00PM 32.1194 -102.1619 275° West 264 304 4,900  Level Fort Worth Center
01:01PM 32.0939 -102.2244 244° Southwest 220 253 4,900 -240 Level Fort Worth Center
01:02PM 32.0422 -102.2167 173° South 152 175 4,500 -660 Descending Fort Worth Center
01:03PM 31.9983 -102.2119 175° South 150 173 3,600 -720 Descending Fort Worth Center
01:04PM 31.9714 -102.2081 173° South 145 167 3,100 360 Descending Fort Worth Center
01:05PM 32.0122 -102.1758 34° Northeast 76 87 4,400 600 Climbing Fort Worth Center
01:06PM 32.0561 -102.1806 355° North 197 227 4,300 -120 Descending Fort Worth Center
01:07PM 31.9611 -102.1956 188° South  Level FlightAware Approximate